Flight Track Log - Related Links

Times and Time Zones

All times are in EDT time to prevent confusion due to time zone crossing. See the UAL395 flight status page for this flight to view local times or setup timezone preferences in your user account.

Time Position Orientation Groundspeed Altitude Reporting Facility
EDT Latitude Longitude Course Direction KTS MPH feet Rate Location/Type
Fri 12:28:09 PM 36.0756 -115.1658 270° West 115 132 3,000  Level Los Angeles Center
Fri 12:29:16 PM 36.0694 -115.2475 265° West 234 269 5,000 2,109 Climbing Los Angeles Center
Fri 12:30:00 PM 35.9235 -115.3749 207° Southwest  Level FlightAware Approximate
Fri 12:30:17 PM 36.0028 -115.2881 206° Southwest 283 326 7,500  Level Los Angeles Center
Fri 12:31:00 PM 35.8834 -115.4704 270° West  Level FlightAware Approximate
Fri 12:31:18 PM 35.9331 -115.3453 214° Southwest 301 346 10,400  Level Los Angeles Center
Fri 12:32:00 PM 35.8833 -115.5963 270° West  Level FlightAware Approximate
Fri 12:32:22 PM 35.8864 -115.4500 241° Southwest 330 380 12,000  Level Los Angeles Center
Fri 12:33:00 PM 35.8834 -115.7223 270° West  Level FlightAware Approximate
Fri 12:33:24 PM 35.8889 -115.5789 271° West 362 417 14,800  Level Los Angeles Center
Fri 12:34:26 PM 35.8914 -115.7064 271° West 373 429 17,100 2,081 Climbing Los Angeles Center
Fri 12:35:28 PM 35.8928 -115.8372 271° West 381 438 19,100 1,984 Climbing Los Angeles Center
Fri 12:36:30 PM 35.9083 -115.9806 278° West 397 457 21,200 1,790 Climbing Los Angeles Center
Fri 12:37:32 PM 35.9878 -116.0756 316° Northwest 400 460 22,800 1,584 Climbing Los Angeles Center
Fri 12:38:35 PM 36.0806 -116.1831 317° Northwest 410 472 24,500 1,344 Climbing Los Angeles Center
Fri 12:39:37 PM 36.1667 -116.2808 318° Northwest 419 482 25,600 1,113 Climbing Los Angeles Center
Fri 12:40:39 PM 36.2550 -116.3839 317° Northwest 428 493 26,800 1,210 Climbing Los Angeles Center
Fri 12:41:41 PM 36.3453 -116.4875 317° Northwest 436 502 28,100 1,500 Climbing Los Angeles Center
Fri 12:42:43 PM 36.4372 -116.5950 317° Northwest 446 513 29,900 1,548 Climbing Los Angeles Center
Fri 12:43:45 PM 36.5247 -116.6983 317° Northwest 441 507 31,300 1,016 Climbing Los Angeles Center
Fri 12:44:47 PM 36.6436 -116.8081 323° Northwest 435 501 32,000 339 Climbing Los Angeles Center
Fri 12:45:49 PM 36.7422 -116.8803 330° Northwest 430 495 32,000  Level Los Angeles Center
Fri 12:46:52 PM 36.8500 -116.9628 329° Northwest 434 499 32,000  Level Los Angeles Center
Fri 12:47:34 PM 36.9106 -117.0117 327° Northwest 434 499 32,000  Level Oakland Center
Fri 12:48:36 PM 37.0139 -117.0922 328° Northwest 434 499 32,000  Level Oakland Center
Fri 12:49:37 PM 37.1378 -117.1869 329° Northwest 435 501 32,000  Level Oakland Center
Fri 12:50:39 PM 37.2406 -117.2664 328° Northwest 432 497 32,000  Level Oakland Center
Fri 12:51:40 PM 37.3233 -117.3725 314° West 436 502 32,000  Level Oakland Center
Fri 12:52:42 PM 37.3469 -117.5181 282° West 433 498 32,000  Level Oakland Center
Fri 12:53:43 PM 37.3611 -117.6661 277° West 429 494 32,000  Level Oakland Center
Fri 12:54:44 PM 37.3744 -117.8139 277° West 426 490 32,000  Level Oakland Center
Fri 12:55:46 PM 37.3886 -117.9628 277° West 427 491 32,000  Level Oakland Center
Fri 12:56:47 PM 37.4014 -118.1111 276° West 427 491 32,000  Level Oakland Center
Fri 12:57:49 PM 37.4172 -118.2606 278° West 428 493 32,000  Level Oakland Center
Fri 12:58:50 PM 37.4297 -118.4083 276° West 427 491 32,000  Level Oakland Center
Fri 12:59:52 PM 37.4444 -118.5858 276° West 425 489 32,000  Level Oakland Center
Fri 01:00:53 PM 37.4581 -118.7339 277° West 425 489 32,000  Level Oakland Center
Fri 01:01:55 PM 37.4681 -118.8736 275° West 421 484 32,000  Level Oakland Center
Fri 01:02:56 PM 37.4814 -119.0219 277° West 425 489 32,000  Level Oakland Center
Fri 01:03:58 PM 37.4964 -119.1808 277° West 471 542 32,000  Level Oakland Center
Fri 01:04:59 PM 37.5078 -119.3281 276° West 435 501 32,000  Level Oakland Center
Fri 01:06:01 PM 37.5206 -119.4917 276° West 425 489 32,000  Level Oakland Center
Fri 01:07:02 PM 37.5308 -119.6517 275° West 422 486 32,000 -146 Level Oakland Center
Fri 01:08:04 PM 37.5431 -119.8003 276° West 426 490 31,700 -634 Descending Oakland Center
Fri 01:09:05 PM 37.5539 -119.9436 275° West 414 476 30,700 -976 Descending Oakland Center
Fri 01:10:07 PM 37.5647 -120.0939 275° West 417 480 29,700 -927 Descending Oakland Center
Fri 01:11:08 PM 37.5789 -120.2375 277° West 407 468 28,800 -934 Descending Oakland Center
Fri 01:12:09 PM 37.5881 -120.3856 275° West 419 482 27,800 -1,075 Descending Oakland Center
Fri 01:12:54 PM 37.6000 -120.5000 278° West 418 481 26,900 -1,429 Descending Northern Cal TRACON
Fri 01:13:54 PM 37.6000 -120.6667 270° West 415 478 25,300 -1,900 Descending Northern Cal TRACON
Fri 01:14:54 PM 37.6167 -120.8000 279° West 411 473 23,100 -2,150 Descending Northern Cal TRACON
Fri 01:15:54 PM 37.6333 -120.9333 279° West 403 464 21,000 -2,250 Descending Northern Cal TRACON
Fri 01:16:54 PM 37.6167 -121.0667 261° West 398 458 18,600 -2,300 Descending Northern Cal TRACON
Fri 01:17:54 PM 37.6000 -121.2000 261° West 390 449 16,400 -2,150 Descending Northern Cal TRACON
Fri 01:18:54 PM 37.5833 -121.3333 261° West 373 429 14,300 -2,050 Descending Northern Cal TRACON
Fri 01:19:54 PM 37.5667 -121.4500 260° West 360 414 12,300 -1,737 Descending Northern Cal TRACON
Fri 01:20:48 PM 37.5500 -121.5667 260° West 342 394 11,000 -600 Descending Northern Cal TRACON
Fri 01:21:54 PM 37.5167 -121.6833 250° West 326 375 11,100 -400 Climbing Northern Cal TRACON
Fri 01:22:48 PM 37.5000 -121.7667 256° West 259 298 10,200 -947 Descending Northern Cal TRACON
Fri 01:23:48 PM 37.4833 -121.8500 256° West 243 280 9,300 -1,100 Descending Northern Cal TRACON
Fri 01:24:48 PM 37.5000 -121.9333 284° West 241 277 8,000 -1,300 Descending Northern Cal TRACON
Fri 01:25:48 PM 37.5167 -122.0167 284° West 234 269 6,700 -1,316 Descending Northern Cal TRACON
Fri 01:26:42 PM 37.5333 -122.0833 288° West 225 259 5,500 -1,327 Descending Northern Cal TRACON
Fri 01:27:32 PM 37.5444 -122.1269 288° West 221 254 4,400 -1,243 Descending Oakland Center
Fri 01:28:33 PM 37.5628 -122.1903 290° West 202 232 3,200 -1,180 Descending Oakland Center

Login

Don't have an account? Register now (free) for customized features, flight alerts, and more!